Airfield :
LOGIN :

Register | Disclaimer

   EN    FR    IT 

 










Legend :    VFR   Marginal VFR   IFR   Intensive IFR   Very Intensive IFR
Visi :
Ceiling :
>= 8 km
>= 3000ft
5 to 8 km
1000 to 3000 ft
1500m to 5 km
500 to 1000 ft
800 to 1500m
200 to 500 ft
< 800m
< 200 ft
Symbols :   Thunderstorms  Fog  Heavy snow  Heavy precipitations  Wind > 20 kt
SIGMETs :     Misc.  Thunderstorms  Icing  Turbulence  Mountain Waves  Volcanic Ashes






- Airport Elevation : 125 ft
- IATA code : MGL


EDLN - Mönchengladbach

CURRENT METAR :
  • 191620Z 30010KT CAVOK 25/16 Q1014

EXPIRED METARs :
  • 191550Z 28009KT 9999 SCT040 25/16 Q1014
  • 191520Z 25006KT 9999 FEW040 26/15 Q1013
  • 191450Z 28009KT 210V310 CAVOK 26/14 Q1013
  • 191420Z 30010KT 240V350 CAVOK 27/14 Q1013
  • 191350Z 25006KT 200V320 CAVOK 26/13 Q1013

TAF TAF EDLN
Valid from the 19 at 15:00 until the 20 at 00:00 UTC


191400Z 1915/1924 29008KT 9999 SCT040
PROB30
TEMPO 1919/1924 TSRA BKN012CB
BECMG 1920/1923 28003KT
TEMPO 1921/1924 4000 SHRA



MET'MAP, your aeronautical weather chart ! - Copyright ORBIFLY December 2007 - Disclaimer

ORBIFLY MET'MAP TEAM :

Programming & Development : Alexandra Zaïnal
Original concept : Baudouin d'Aumeries
Technical & hardware support : Manuel Goepfert
Assistance : Marc-Olivier Méhu




SOURCES & CREDITS :

   NOAA